Time;durP1;ratioP1;P1;durP2;ratioP2;P2;SDS_P1;SDS_P2;PMS_P1;PMS_P2;Temp;Humidity;BMP_temperature;BMP_pressure;BME280_temperature;BME280_humidity;BME280_pressure;Samples;Min_cycle;Max_cycle;Signal;HPM_P1;HPM_P2
2023/08/10 00:00:49;;;;;;;0.50;0.50;;;;;;;13.72;100.00;98007.16;1223420;75;2929727;-67
2023/08/10 00:03:22;;;;;;;0.30;0.30;;;;;;;13.85;100.00;98018.53;1223102;75;2926021;-69
2023/08/10 00:05:54;;;;;;;0.25;0.25;;;;;;;13.69;100.00;98024.66;1223446;75;2943964;-69
2023/08/10 00:08:27;;;;;;;0.40;0.40;;;;;;;13.58;100.00;98025.28;1223475;75;2925980;-67
2023/08/10 00:11:00;;;;;;;0.30;0.30;;;;;;;13.59;100.00;98020.56;1223403;75;2921231;-68
2023/08/10 00:13:32;;;;;;;0.30;0.30;;;;;;;13.61;100.00;98018.84;1223076;75;2928122;-68
2023/08/10 00:16:07;;;;;;;0.40;0.40;;;;;;;13.28;100.00;98018.53;1223056;75;2919368;-69
2023/08/10 00:18:40;;;;;;;0.30;0.30;;;;;;;13.30;100.00;98019.56;1222590;75;2923841;-68
2023/08/10 00:21:13;;;;;;;0.60;0.50;;;;;;;12.96;100.00;98027.44;1223058;75;2917093;-69
2023/08/10 00:23:45;;;;;;;0.50;0.50;;;;;;;13.11;100.00;98023.84;1223676;75;2923507;-68
2023/08/10 00:26:18;;;;;;;0.40;0.40;;;;;;;13.25;100.00;98020.22;1224158;75;2927287;-69
2023/08/10 00:28:51;;;;;;;0.30;0.30;;;;;;;13.34;100.00;98020.09;1223796;75;2929910;-67
2023/08/10 00:31:26;;;;;;;1.20;0.40;;;;;;;13.27;100.00;98022.47;1223368;75;2929472;-68
2023/08/10 00:33:58;;;;;;;0.30;0.30;;;;;;;13.26;100.00;98021.72;1223609;75;2927912;-68
2023/08/10 00:36:31;;;;;;;0.30;0.30;;;;;;;13.34;100.00;98022.06;1222761;75;2933893;-70
2023/08/10 00:39:04;;;;;;;0.35;0.30;;;;;;;13.32;100.00;98016.31;1221520;75;2926734;-67
2023/08/10 00:41:36;;;;;;;0.30;0.30;;;;;;;13.27;100.00;98017.75;1223106;75;2923019;-66
2023/08/10 00:44:09;;;;;;;0.40;0.30;;;;;;;13.15;100.00;98019.59;1223051;75;2920413;-70
2023/08/10 00:46:45;;;;;;;0.70;0.40;;;;;;;13.16;100.00;98023.88;1223370;75;2926366;-67
2023/08/10 00:49:17;;;;;;;0.40;0.40;;;;;;;13.05;100.00;98039.50;1223371;75;2930318;-69
2023/08/10 00:51:50;;;;;;;0.45;0.30;;;;;;;12.87;100.00;98041.31;1221940;75;2924585;-68
2023/08/10 00:54:23;;;;;;;0.40;0.40;;;;;;;12.60;100.00;98041.72;1223661;75;2915634;-70
2023/08/10 00:56:56;;;;;;;0.65;0.50;;;;;;;12.80;100.00;98038.97;1222216;75;2921813;-68
2023/08/10 00:59:30;;;;;;;0.40;0.40;;;;;;;12.82;100.00;98043.97;1223132;75;2923674;-68
2023/08/10 01:02:06;;;;;;;1.25;0.40;;;;;;;12.77;100.00;98028.94;1221889;75;2923741;-68
2023/08/10 01:04:39;;;;;;;0.95;0.55;;;;;;;12.66;100.00;98026.06;1222932;75;2925463;-69
2023/08/10 01:07:22;;;;;;;0.40;0.40;;;;;;;12.68;100.00;98029.84;1222637;75;2927268;-67
2023/08/10 01:10:04;;;;;;;0.40;0.40;;;;;;;12.94;100.00;98032.66;1223009;75;2925353;-67
2023/08/10 01:12:45;;;;;;;0.30;0.30;;;;;;;12.97;100.00;98036.41;1223801;75;2933689;-69
2023/08/10 01:15:23;;;;;;;3.90;0.40;;;;;;;12.98;100.00;98019.44;1223195;75;2925324;-66
2023/08/10 01:18:05;;;;;;;0.30;0.30;;;;;;;13.13;100.00;98022.13;1223280;75;2924175;-65
2023/08/10 01:20:39;;;;;;;0.40;0.40;;;;;;;13.11;100.00;98015.59;1223573;75;2924605;-67
2023/08/10 01:23:22;;;;;;;0.25;0.25;;;;;;;13.14;100.00;98031.09;1222661;75;2928044;-69
2023/08/10 01:25:58;;;;;;;3.20;0.35;;;;;;;13.06;100.00;98032.75;1223026;75;2950805;-69
2023/08/10 01:28:32;;;;;;;1.90;0.40;;;;;;;13.03;100.00;98045.47;1222741;75;2929526;-66
2023/08/10 01:31:05;;;;;;;0.50;0.30;;;;;;;12.77;100.00;98037.16;1223476;75;2919692;-67
2023/08/10 01:33:39;;;;;;;0.30;0.30;;;;;;;12.97;100.00;98039.16;1222124;75;2925147;-69
2023/08/10 01:36:11;;;;;;;0.30;0.30;;;;;;;12.70;100.00;98038.34;1223445;75;2929165;-66
2023/08/10 01:38:44;;;;;;;0.35;0.35;;;;;;;12.82;100.00;98035.72;1222360;75;2922686;-69
2023/08/10 01:41:20;;;;;;;0.20;0.20;;;;;;;13.14;100.00;98037.34;1222468;75;2926839;-66
2023/08/10 01:43:52;;;;;;;0.30;0.30;;;;;;;13.19;100.00;98041.41;1223164;75;2935450;-68
2023/08/10 01:46:28;;;;;;;0.40;0.30;;;;;;;13.25;100.00;98038.69;1223532;75;2920252;-68
2023/08/10 01:49:03;;;;;;;0.40;0.30;;;;;;;13.23;100.00;98044.72;1223831;75;2932868;-66
2023/08/10 01:51:38;;;;;;;0.40;0.35;;;;;;;13.12;100.00;98047.31;1221821;75;2929491;-67
2023/08/10 01:54:12;;;;;;;0.30;0.30;;;;;;;13.12;100.00;98047.31;1223234;75;2932231;-65
2023/08/10 01:56:48;;;;;;;1.00;0.30;;;;;;;12.87;100.00;98046.03;1221856;75;2923008;-66
2023/08/10 01:59:21;;;;;;;0.50;0.35;;;;;;;12.77;100.00;98048.16;1223520;75;2939028;-68
2023/08/10 02:01:53;;;;;;;0.50;0.50;;;;;;;12.82;100.00;98053.00;1223534;75;2929007;-66
2023/08/10 02:04:26;;;;;;;1.25;0.30;;;;;;;13.00;100.00;98051.94;1223116;75;2926866;-69
2023/08/10 02:06:58;;;;;;;0.40;0.40;;;;;;;12.83;100.00;98056.47;1223570;75;2927319;-67
2023/08/10 02:09:31;;;;;;;1.50;0.55;;;;;;;12.70;100.00;98052.09;1223246;75;2930971;-67
2023/08/10 02:12:07;;;;;;;0.50;0.40;;;;;;;12.87;100.00;98049.56;1222726;75;2922268;-69
2023/08/10 02:14:39;;;;;;;1.80;0.50;;;;;;;12.66;100.00;98043.28;1223595;75;2926803;-67
2023/08/10 02:17:12;;;;;;;0.50;0.50;;;;;;;13.01;100.00;98058.94;1221364;75;2927021;-67
2023/08/10 02:19:45;;;;;;;0.40;0.40;;;;;;;13.01;100.00;98056.19;1222989;75;2929170;-69
2023/08/10 02:22:17;;;;;;;0.40;0.20;;;;;;;13.09;100.00;98051.78;1223474;75;2932738;-67
2023/08/10 02:24:50;;;;;;;1.75;0.40;;;;;;;13.08;100.00;98052.28;1220880;75;2939280;-68
2023/08/10 02:27:25;;;;;;;0.30;0.30;;;;;;;13.12;100.00;98041.81;1223493;75;2931151;-70
2023/08/10 02:29:58;;;;;;;0.80;0.50;;;;;;;13.10;100.00;98042.28;1223169;75;2924792;-68
2023/08/10 02:32:30;;;;;;;0.30;0.30;;;;;;;13.15;100.00;98054.59;1222910;75;2923908;-68
2023/08/10 02:35:04;;;;;;;0.30;0.30;;;;;;;12.96;100.00;98059.63;1223143;75;2921013;-67
2023/08/10 02:37:37;;;;;;;0.60;0.50;;;;;;;12.91;100.00;98065.81;1222924;75;2930534;-66
2023/08/10 02:40:12;;;;;;;0.65;0.45;;;;;;;12.78;100.00;98072.41;1223540;75;2930285;-68
2023/08/10 02:42:48;;;;;;;0.55;0.50;;;;;;;12.87;100.00;98077.03;1222820;75;2951548;-69
2023/08/10 02:45:21;;;;;;;1.55;0.30;;;;;;;12.65;100.00;98066.50;1222880;75;2931684;-68
2023/08/10 02:47:53;;;;;;;1.15;0.60;;;;;;;12.76;100.00;98076.88;1223374;75;2921982;-69
2023/08/10 02:50:26;;;;;;;0.40;0.30;;;;;;;12.96;100.00;98082.38;1222786;75;2926194;-67
2023/08/10 02:52:58;;;;;;;0.60;0.35;;;;;;;13.06;100.00;98079.47;1223465;75;2932421;-68
2023/08/10 02:55:31;;;;;;;0.35;0.35;;;;;;;12.85;100.00;98087.75;1223128;75;2923414;-69
2023/08/10 02:58:07;;;;;;;0.55;0.50;;;;;;;12.81;100.00;98078.94;1223849;75;2926872;-66
2023/08/10 03:00:41;;;;;;;1.95;0.55;;;;;;;12.89;100.00;98082.03;1222656;75;2937642;-68
2023/08/10 03:03:13;;;;;;;0.55;0.50;;;;;;;12.90;100.00;98091.78;1224033;75;2922076;-67
2023/08/10 03:05:47;;;;;;;0.95;0.80;;;;;;;12.88;100.00;98092.25;1222936;75;2931140;-68
2023/08/10 03:08:19;;;;;;;1.15;0.70;;;;;;;12.86;100.00;98091.97;1223375;75;2924319;-68
2023/08/10 03:10:52;;;;;;;0.75;0.50;;;;;;;13.10;100.00;98105.53;1222622;75;2921352;-67
2023/08/10 03:13:27;;;;;;;0.50;0.50;;;;;;;13.16;100.00;98108.34;1223418;75;2923000;-68
2023/08/10 03:16:00;;;;;;;0.60;0.40;;;;;;;13.06;100.00;98104.22;1222864;75;2924027;-68
2023/08/10 03:18:33;;;;;;;0.50;0.40;;;;;;;13.17;100.00;98105.09;1222935;75;2929550;-68
2023/08/10 03:21:06;;;;;;;0.35;0.35;;;;;;;13.10;100.00;98100.03;1223494;75;2924207;-66
2023/08/10 03:23:38;;;;;;;1.40;0.50;;;;;;;12.93;100.00;98097.06;1223497;75;2927688;-67
2023/08/10 03:26:11;;;;;;;0.50;0.50;;;;;;;13.14;100.00;98100.56;1223284;75;2922340;-68
2023/08/10 03:28:46;;;;;;;1.30;0.50;;;;;;;13.22;100.00;98103.66;1223632;75;2922461;-67
2023/08/10 03:31:19;;;;;;;0.50;0.50;;;;;;;13.30;100.00;98104.78;1222927;75;2931138;-67
2023/08/10 03:33:51;;;;;;;0.75;0.75;;;;;;;13.08;100.00;98112.75;1223739;75;2923571;-68
2023/08/10 03:36:24;;;;;;;1.00;0.70;;;;;;;12.98;100.00;98112.13;1223671;75;2921556;-66
2023/08/10 03:38:56;;;;;;;0.50;0.50;;;;;;;13.37;100.00;98115.38;1222178;75;2922394;-68
2023/08/10 03:41:29;;;;;;;0.65;0.50;;;;;;;13.45;100.00;98115.69;1223049;75;2924599;-66
2023/08/10 03:44:04;;;;;;;0.55;0.55;;;;;;;13.42;100.00;98108.41;1222646;75;2948372;-67
2023/08/10 03:46:37;;;;;;;2.75;0.60;;;;;;;13.45;100.00;98106.69;1223337;75;2941078;-67
2023/08/10 03:49:12;;;;;;;0.40;0.40;;;;;;;13.40;100.00;98108.16;1221541;75;2935793;-66
2023/08/10 03:51:45;;;;;;;0.60;0.40;;;;;;;13.37;100.00;98111.84;1219913;75;2936665;-67
2023/08/10 03:54:17;;;;;;;0.35;0.35;;;;;;;13.43;100.00;98116.19;1222324;75;2921447;-70
2023/08/10 03:56:50;;;;;;;0.50;0.40;;;;;;;13.31;100.00;98108.28;1221852;75;2923801;-72
2023/08/10 03:59:25;;;;;;;0.55;0.55;;;;;;;13.22;100.00;98115.41;1221862;75;2925975;-68
2023/08/10 04:01:58;;;;;;;0.60;0.60;;;;;;;13.43;100.00;98107.94;1220678;75;2976161;-68
2023/08/10 04:04:30;;;;;;;0.40;0.40;;;;;;;13.27;100.00;98115.97;1222530;75;2919658;-69
2023/08/10 04:07:03;;;;;;;1.55;0.70;;;;;;;13.12;100.00;98116.78;1222137;75;2924432;-67
2023/08/10 04:09:35;;;;;;;0.35;0.35;;;;;;;13.27;100.00;98122.25;1223198;75;2918593;-69
2023/08/10 04:12:08;;;;;;;0.45;0.45;;;;;;;13.35;100.00;98114.34;1221855;75;2921300;-67
2023/08/10 04:14:44;;;;;;;1.50;0.60;;;;;;;13.18;100.00;98114.09;1222210;75;2924937;-68
2023/08/10 04:17:16;;;;;;;0.70;0.70;;;;;;;13.30;100.00;98113.03;1221769;75;2921120;-68
2023/08/10 04:19:49;;;;;;;3.70;3.20;;;;;;;13.16;100.00;98106.34;1222323;75;2922136;-68
2023/08/10 04:22:22;;;;;;;6.25;2.70;;;;;;;13.21;100.00;98111.16;1223065;75;2923887;-66
2023/08/10 04:24:55;;;;;;;11.75;9.05;;;;;;;13.48;100.00;98106.47;1223390;75;2931101;-69
2023/08/10 04:27:29;;;;;;;7.60;5.50;;;;;;;13.65;100.00;98098.38;1222552;75;2926298;-68
2023/08/10 04:30:08;;;;;;;9.60;7.75;;;;;;;13.56;100.00;98090.28;1222489;75;2933017;-67
2023/08/10 04:32:41;;;;;;;6.20;5.20;;;;;;;13.54;100.00;98092.78;1221119;75;2953845;-68
2023/08/10 04:35:14;;;;;;;5.75;4.55;;;;;;;13.70;100.00;98094.94;1223495;75;2925048;-68
2023/08/10 04:37:48;;;;;;;4.50;3.85;;;;;;;13.69;100.00;98098.94;1221925;75;2919929;-68
2023/08/10 04:40:21;;;;;;;2.95;2.40;;;;;;;13.50;100.00;98109.50;1223181;75;2919284;-67
2023/08/10 04:42:54;;;;;;;2.10;1.70;;;;;;;13.56;100.00;98110.31;1222334;75;2944081;-68
2023/08/10 04:45:29;;;;;;;1.30;1.15;;;;;;;13.63;100.00;98100.88;1222591;83;2923565;-68
2023/08/10 04:48:02;;;;;;;1.45;0.90;;;;;;;13.37;100.00;98104.38;1222552;75;2925623;-68
2023/08/10 04:50:34;;;;;;;0.70;0.70;;;;;;;13.35;100.00;98098.59;1222558;75;2931571;-67
2023/08/10 04:53:07;;;;;;;0.70;0.70;;;;;;;13.49;100.00;98099.72;1222699;75;2923457;-68
2023/08/10 04:55:40;;;;;;;0.70;0.70;;;;;;;13.79;100.00;98096.78;1222313;75;2922742;-69
2023/08/10 04:58:12;;;;;;;0.90;0.50;;;;;;;13.89;100.00;98108.38;1222116;75;2926258;-70
2023/08/10 05:00:48;;;;;;;0.65;0.60;;;;;;;13.70;100.00;98107.94;1217648;75;2940208;-69
2023/08/10 05:03:20;;;;;;;1.45;0.70;;;;;;;13.88;100.00;98109.59;1220544;75;2925964;-68
2023/08/10 05:05:54;;;;;;;0.40;0.40;;;;;;;14.12;100.00;98121.09;1191280;75;5269629;-69
2023/08/10 05:08:27;;;;;;;1.75;1.10;;;;;;;13.87;100.00;98132.88;1222916;75;2936245;-69
2023/08/10 05:11:00;;;;;;;2.90;1.20;;;;;;;14.00;100.00;98145.00;1219555;75;2965983;-69
2023/08/10 05:13:33;;;;;;;1.85;1.30;;;;;;;14.40;100.00;98131.53;1223666;75;2920181;-68
2023/08/10 05:16:08;;;;;;;1.40;1.20;;;;;;;14.58;100.00;98133.22;1222397;75;2921039;-68
2023/08/10 05:18:43;;;;;;;1.15;1.05;;;;;;;14.50;100.00;98124.59;1223097;75;2929701;-70
2023/08/10 05:21:15;;;;;;;1.80;1.20;;;;;;;14.53;100.00;98133.88;1220541;75;2923320;-68
2023/08/10 05:23:48;;;;;;;1.60;1.00;;;;;;;14.52;100.00;98135.88;1223126;75;2927515;-69
2023/08/10 05:26:21;;;;;;;0.95;0.85;;;;;;;14.67;100.00;98141.25;1221218;75;2935057;-68
2023/08/10 05:28:53;;;;;;;1.35;0.90;;;;;;;14.88;100.00;98142.63;1222652;75;2926807;-68
2023/08/10 05:31:29;;;;;;;1.45;1.10;;;;;;;14.90;100.00;98140.16;1219796;75;2922978;-68
2023/08/10 05:34:01;;;;;;;1.40;1.00;;;;;;;14.95;100.00;98146.19;1222082;75;2908844;-69
2023/08/10 05:36:34;;;;;;;2.20;1.55;;;;;;;14.85;100.00;98151.91;1221350;75;2920561;-68
2023/08/10 05:39:08;;;;;;;3.00;2.40;;;;;;;14.75;100.00;98155.34;1221590;75;2923264;-68
2023/08/10 05:41:41;;;;;;;4.55;2.40;;;;;;;14.99;100.00;98158.50;1220188;75;2923161;-66
2023/08/10 05:44:14;;;;;;;3.30;2.35;;;;;;;15.21;100.00;98163.38;1222521;75;2925672;-68
2023/08/10 05:46:50;;;;;;;2.60;1.80;;;;;;;15.27;100.00;98169.66;1220215;75;2924766;-68
2023/08/10 05:49:22;;;;;;;3.40;2.05;;;;;;;15.31;100.00;98172.94;1222335;75;2921243;-69
2023/08/10 05:51:55;;;;;;;2.55;2.20;;;;;;;15.42;100.00;98180.50;1218925;75;2923012;-71
2023/08/10 05:54:27;;;;;;;3.35;2.00;;;;;;;15.43;100.00;98182.00;1221906;75;2936603;-67
2023/08/10 05:57:00;;;;;;;2.40;1.85;;;;;;;15.60;100.00;98181.31;1220962;75;2924507;-69
2023/08/10 05:59:32;;;;;;;2.55;1.95;;;;;;;15.72;100.00;98183.63;1221969;75;2932705;-69
2023/08/10 06:02:08;;;;;;;2.60;2.10;;;;;;;15.70;100.00;98180.59;1219346;75;2925501;-67
2023/08/10 06:04:41;;;;;;;3.50;2.30;;;;;;;15.70;100.00;98185.38;1221909;75;2923633;-67
2023/08/10 06:07:17;;;;;;;2.35;2.05;;;;;;;15.77;100.00;98168.34;1220018;75;2921093;-68
2023/08/10 06:09:57;;;;;;;2.85;1.65;;;;;;;16.09;100.00;98159.84;1222929;75;2926189;-67
2023/08/10 06:12:30;;;;;;;1.60;1.50;;;;;;;16.48;100.00;98157.09;1220133;75;2923028;-67
2023/08/10 06:15:02;;;;;;;2.30;1.45;;;;;;;16.49;100.00;98150.31;1221919;75;2930169;-69
2023/08/10 06:17:38;;;;;;;1.30;1.20;;;;;;;16.61;100.00;98148.28;1218708;75;2927378;-68
2023/08/10 06:20:16;;;;;;;2.20;1.10;;;;;;;16.56;100.00;98152.56;1221669;75;2927378;-68
2023/08/10 06:22:49;;;;;;;1.20;1.00;;;;;;;17.09;100.00;98155.50;1220402;75;2930554;-68
2023/08/10 06:25:22;;;;;;;1.10;1.00;;;;;;;17.31;100.00;98156.66;1221589;75;2924209;-67
2023/08/10 06:27:55;;;;;;;1.50;1.10;;;;;;;17.43;96.80;98150.56;1219258;75;2929191;-67
2023/08/10 06:30:28;;;;;;;0.80;0.80;;;;;;;17.62;95.11;98147.97;1222434;75;2923277;-68
2023/08/10 06:33:03;;;;;;;1.95;1.70;;;;;;;17.36;95.49;98148.34;1220044;75;2926632;-70
2023/08/10 06:35:36;;;;;;;1.50;1.40;;;;;;;17.72;92.31;98140.09;1222472;75;2926340;-69
2023/08/10 06:38:08;;;;;;;1.25;1.10;;;;;;;17.91;91.19;98137.50;1220126;75;2932703;-69
2023/08/10 06:40:41;;;;;;;1.15;1.00;;;;;;;17.65;91.98;98140.63;1221973;75;2928278;-70
2023/08/10 06:43:14;;;;;;;2.15;1.30;;;;;;;17.64;88.45;98148.19;1219721;75;2925125;-69
2023/08/10 06:45:46;;;;;;;1.95;1.50;;;;;;;17.56;93.44;98146.50;1222103;75;2920462;-69
2023/08/10 06:48:21;;;;;;;3.25;1.50;;;;;;;17.73;91.83;98149.94;1221014;75;2928035;-68
2023/08/10 06:50:54;;;;;;;1.75;1.10;;;;;;;18.07;88.22;98150.47;1222700;75;2926016;-71
2023/08/10 06:53:26;;;;;;;1.20;1.10;;;;;;;18.35;88.11;98151.50;1219256;75;2924713;-70
2023/08/10 06:55:59;;;;;;;0.75;0.75;;;;;;;18.70;83.44;98145.91;1222061;75;2936722;-69
2023/08/10 06:58:32;;;;;;;1.35;1.05;;;;;;;18.47;85.48;98150.16;1219185;75;2924774;-69
2023/08/10 07:01:05;;;;;;;1.15;1.05;;;;;;;18.74;86.32;98149.16;1221817;75;2920827;-69
2023/08/10 07:03:42;;;;;;;0.95;0.90;;;;;;;18.74;84.49;98149.16;1219709;75;2923460;-70
2023/08/10 07:06:16;;;;;;;1.50;1.35;;;;;;;18.57;87.25;98147.78;1222515;75;2920988;-67
2023/08/10 07:08:52;;;;;;;1.50;1.40;;;;;;;18.52;88.43;98157.69;1219236;75;2932752;-69
2023/08/10 07:11:25;;;;;;;1.55;1.10;;;;;;;18.46;86.28;98154.94;1222018;75;2919396;-70
2023/08/10 07:13:57;;;;;;;1.40;1.20;;;;;;;18.61;83.94;98162.13;1220605;75;2920776;-71
2023/08/10 07:16:30;;;;;;;1.10;1.00;;;;;;;18.77;84.29;98158.47;1222076;75;2932782;-68
2023/08/10 07:19:05;;;;;;;1.80;1.15;;;;;;;18.72;81.46;98148.16;1220830;75;2925108;-71
2023/08/10 07:21:38;;;;;;;1.45;1.20;;;;;;;19.14;79.67;98141.16;1221639;75;2922686;-68
2023/08/10 07:24:11;;;;;;;2.45;1.40;;;;;;;18.66;81.19;98130.81;1220288;75;2931939;-68
2023/08/10 07:26:44;;;;;;;1.20;1.10;;;;;;;18.98;77.33;98131.03;1222206;75;2918348;-70
2023/08/10 07:29:17;;;;;;;1.05;0.90;;;;;;;19.42;77.42;98137.28;1221613;75;2929023;-69
2023/08/10 07:31:51;;;;;;;0.75;0.75;;;;;;;19.43;77.72;98146.38;1207072;75;4081195;-69
2023/08/10 07:34:27;;;;;;;0.85;0.80;;;;;;;19.87;74.55;98158.94;1221051;75;2922483;-69
2023/08/10 07:36:59;;;;;;;0.80;0.80;;;;;;;19.77;75.29;98147.47;1223275;75;2927350;-67
2023/08/10 07:39:32;;;;;;;1.55;1.10;;;;;;;19.69;74.97;98151.38;1218514;75;2923400;-69
2023/08/10 07:42:04;;;;;;;1.30;1.10;;;;;;;19.83;79.18;98149.41;1222844;75;2924688;-69
2023/08/10 07:44:37;;;;;;;2.55;1.30;;;;;;;19.68;75.50;98150.63;1221356;75;2926463;-70
2023/08/10 07:47:12;;;;;;;1.75;1.20;;;;;;;20.07;72.75;98142.97;1223398;75;2926740;-66
2023/08/10 07:49:48;;;;;;;2.05;1.20;;;;;;;20.07;73.53;98146.50;1220069;75;2954929;-69
2023/08/10 07:52:21;;;;;;;1.40;0.90;;;;;;;19.99;71.44;98154.72;1221107;75;2920589;-70
2023/08/10 07:54:53;;;;;;;1.90;1.00;;;;;;;20.30;71.57;98158.03;1220962;75;2919937;-69
2023/08/10 07:57:26;;;;;;;1.25;0.95;;;;;;;20.11;73.34;98160.84;1222743;75;2923120;-69
2023/08/10 08:00:02;;;;;;;1.95;1.20;;;;;;;20.40;73.83;98166.72;1222155;75;2923241;-70
2023/08/10 08:02:35;;;;;;;1.40;1.00;;;;;;;20.08;73.18;98166.72;1222998;75;2921570;-66
2023/08/10 08:05:11;;;;;;;2.50;1.30;;;;;;;20.05;74.10;98170.56;1221005;75;2926218;-68
2023/08/10 08:07:44;;;;;;;1.60;1.10;;;;;;;20.18;74.93;98163.03;1220604;75;2937650;-71
2023/08/10 08:10:16;;;;;;;1.10;1.00;;;;;;;19.94;73.51;98175.00;1220853;67;2930246;-69
2023/08/10 08:12:49;;;;;;;1.20;0.95;;;;;;;20.19;71.98;98164.50;1221771;75;2932302;-69
2023/08/10 08:15:22;;;;;;;1.35;1.10;;;;;;;20.53;72.90;98163.22;1221418;75;2927653;-69
2023/08/10 08:18:55;;;;;;;3.35;1.15;;;;;;;20.73;71.27;98170.97;1222720;75;2930983;-67
2023/08/10 08:21:33;;;;;;;1.95;1.10;;;;;;;20.89;70.34;98174.00;1221166;75;2959300;-73
2023/08/10 08:24:06;;;;;;;1.50;0.90;;;;;;;20.90;72.01;98173.47;1218695;75;3100912;-71
2023/08/10 08:26:40;;;;;;;1.10;0.70;;;;;;;20.97;70.59;98164.47;1222215;75;2928083;-71
2023/08/10 08:29:14;;;;;;;1.15;0.95;;;;;;;20.92;69.42;98173.66;1221759;75;2925277;-68
2023/08/10 08:31:47;;;;;;;1.85;1.30;;;;;;;21.44;70.71;98161.03;1209838;75;3885294;-69
2023/08/10 08:34:19;;;;;;;1.50;1.15;;;;;;;21.42;68.30;98157.28;1220888;75;2933476;-71
2023/08/10 08:36:55;;;;;;;2.30;1.40;;;;;;;21.01;74.72;98175.28;1223411;75;2928355;-71
2023/08/10 08:39:27;;;;;;;1.90;1.35;;;;;;;20.98;74.65;98174.31;1221702;75;2926390;-70
2023/08/10 08:42:02;;;;;;;0.90;0.80;;;;;;;21.62;69.57;98173.34;1221557;75;2925097;-70
2023/08/10 08:44:34;;;;;;;2.85;1.20;;;;;;;20.65;72.13;98181.25;1220035;75;2928784;-71
2023/08/10 08:47:08;;;;;;;2.85;1.10;;;;;;;20.60;74.35;98180.06;1221788;75;2921574;-70
2023/08/10 08:49:40;;;;;;;1.45;1.00;;;;;;;20.75;70.85;98168.41;1221596;75;2923215;-68
2023/08/10 08:52:16;;;;;;;1.20;1.00;;;;;;;21.09;69.74;98164.25;1223529;75;2922262;-68
2023/08/10 08:54:50;;;;;;;1.10;0.90;;;;;;;21.11;70.82;98168.00;1221107;75;2934071;-68
2023/08/10 08:57:22;;;;;;;1.65;1.00;;;;;;;20.69;75.68;98170.56;1223667;75;2930031;-69
2023/08/10 08:59:55;;;;;;;4.25;0.90;;;;;;;20.68;78.28;98169.03;1221361;75;2924519;-72
2023/08/10 09:02:28;;;;;;;1.10;1.00;;;;;;;20.94;77.98;98170.34;1222000;75;2922666;-70
2023/08/10 09:05:01;;;;;;;1.35;1.15;;;;;;;21.46;80.55;98172.41;1222023;75;2927725;-70
2023/08/10 09:07:37;;;;;;;1.70;1.20;;;;;;;21.65;75.33;98169.47;1223880;75;2928506;-70
2023/08/10 09:10:11;;;;;;;2.20;1.30;;;;;;;21.21;77.23;98169.09;1189890;75;5255861;-72
2023/08/10 09:12:45;;;;;;;1.00;0.90;;;;;;;21.32;75.93;98167.34;1222981;75;2934320;-70
2023/08/10 09:15:20;;;;;;;1.70;1.10;;;;;;;22.01;75.66;98168.94;1218214;75;3033929;-71
2023/08/10 09:17:54;;;;;;;4.00;1.10;;;;;;;21.26;74.53;98168.22;1223526;75;2921660;-69
2023/08/10 09:20:29;;;;;;;2.45;1.25;;;;;;;21.65;76.39;98177.09;1221678;75;2926520;-70
2023/08/10 09:23:05;;;;;;;1.50;1.15;;;;;;;20.72;78.39;98182.66;1222313;75;2923984;-68
2023/08/10 09:25:40;;;;;;;0.90;0.75;;;;;;;21.87;75.65;98175.84;1221341;75;2920499;-71
2023/08/10 09:28:14;;;;;;;1.25;0.85;;;;;;;21.61;73.52;98182.97;1223203;75;2923265;-69
2023/08/10 09:30:46;;;;;;;2.50;1.15;;;;;;;21.57;75.92;98184.59;1220856;75;2920090;-71
2023/08/10 09:33:34;;;;;;;2.10;1.30;;;;;;;21.86;73.52;98191.81;1222273;75;2950796;-70
2023/08/10 09:36:08;;;;;;;2.15;0.90;;;;;;;21.74;71.36;98189.81;1220816;75;2923836;-71
2023/08/10 09:38:53;;;;;;;3.75;1.35;;;;;;;21.44;69.76;98188.88;1217410;75;3254975;-68
2023/08/10 09:41:26;;;;;;;1.30;1.00;;;;;;;21.94;71.38;98191.16;1220505;75;2932004;-71
2023/08/10 09:43:59;;;;;;;1.60;1.00;;;;;;;22.91;68.34;98191.09;1222932;75;2927555;-70
2023/08/10 09:46:33;;;;;;;1.25;0.85;;;;;;;22.21;67.31;98191.81;1220520;75;2923441;-68
2023/08/10 09:49:06;;;;;;;1.65;1.30;;;;;;;22.33;69.35;98193.78;1222587;75;2926684;-69
2023/08/10 09:51:41;;;;;;;1.55;1.05;;;;;;;22.26;68.20;98188.91;1221205;75;2927449;-70
2023/08/10 09:54:16;;;;;;;3.95;1.30;;;;;;;22.30;66.33;98178.16;1221930;75;2936710;-70
2023/08/10 09:56:50;;;;;;;3.25;1.10;;;;;;;22.03;66.38;98176.72;1222025;75;2928276;-69
2023/08/10 09:59:23;;;;;;;1.95;1.00;;;;;;;23.07;66.74;98169.66;1223539;75;2928203;-69
2023/08/10 10:01:56;;;;;;;1.75;0.90;;;;;;;22.36;63.91;98171.69;1220722;75;2924538;-71
2023/08/10 10:04:33;;;;;;;1.25;1.00;;;;;;;22.68;63.77;98165.81;1222602;75;2925929;-71
2023/08/10 10:07:06;;;;;;;2.70;1.00;;;;;;;22.39;63.33;98171.34;1221293;75;2923375;-66
2023/08/10 10:09:43;;;;;;;1.95;0.80;;;;;;;22.02;63.72;98167.63;1223585;75;2929483;-69
2023/08/10 10:12:18;;;;;;;1.40;1.05;;;;;;;21.57;65.67;98160.25;1220889;75;2926381;-71
2023/08/10 10:14:51;;;;;;;1.05;0.85;;;;;;;21.95;65.18;98164.75;1223456;75;2924862;-71
2023/08/10 10:17:25;;;;;;;1.10;1.00;;;;;;;22.27;63.03;98165.31;1220865;75;2924933;-67
2023/08/10 10:19:58;;;;;;;1.15;0.80;;;;;;;22.63;63.16;98158.31;1223139;75;2930541;-69
2023/08/10 10:22:31;;;;;;;0.70;0.70;;;;;;;21.86;66.55;98155.59;1220515;75;2922891;-68
2023/08/10 10:25:06;;;;;;;1.95;1.00;;;;;;;22.15;64.22;98150.09;1223369;75;2924369;-68
2023/08/10 10:27:42;;;;;;;1.25;0.70;;;;;;;22.65;62.27;98142.53;1221670;75;2930223;-73
2023/08/10 10:30:21;;;;;;;1.55;1.10;;;;;;;23.09;62.74;98145.47;1223963;75;2920786;-70
2023/08/10 10:32:55;;;;;;;3.20;0.75;;;;;;;22.98;62.83;98140.19;1220589;75;2930183;-67
2023/08/10 10:35:34;;;;;;;2.30;1.20;;;;;;;22.62;63.05;98143.63;1222212;75;2925391;-71
2023/08/10 10:38:08;;;;;;;1.90;1.00;;;;;;;23.27;62.68;98140.13;1221113;75;2923250;-70
2023/08/10 10:40:45;;;;;;;1.00;0.80;;;;;;;24.40;61.44;98132.59;1223212;75;2929654;-69
2023/08/10 10:43:17;;;;;;;1.20;1.10;;;;;;;23.68;60.25;98135.63;1222270;75;2923800;-69
2023/08/10 10:45:50;;;;;;;1.60;0.90;;;;;;;24.19;59.36;98127.16;1223417;75;2930974;-70
2023/08/10 10:48:37;;;;;;;2.75;1.20;;;;;;;24.37;59.29;98127.38;1217672;75;3062679;-70
2023/08/10 10:51:10;;;;;;;3.30;1.20;;;;;;;24.27;58.54;98123.63;1223010;75;2921814;-71
2023/08/10 10:53:43;;;;;;;1.40;0.95;;;;;;;24.72;57.37;98117.28;1222505;75;2922344;-70
2023/08/10 10:56:19;;;;;;;1.35;1.00;;;;;;;24.94;55.29;98110.13;1222797;75;2923212;-72
2023/08/10 10:58:52;;;;;;;1.60;0.90;;;;;;;24.62;55.55;98113.56;1222431;75;2923301;-70
2023/08/10 11:01:25;;;;;;;1.55;0.85;;;;;;;25.78;54.45;98100.66;1221844;75;2924902;-70
2023/08/10 11:03:59;;;;;;;1.00;0.80;;;;;;;26.02;53.19;98096.41;1223045;75;2927589;-70
2023/08/10 11:06:31;;;;;;;0.90;0.85;;;;;;;25.58;55.13;98102.44;1221460;75;2924315;-68
2023/08/10 11:09:06;;;;;;;2.25;1.10;;;;;;;25.16;56.48;98110.63;1223884;75;2925518;-70
2023/08/10 11:11:43;;;;;;;3.00;1.10;;;;;;;24.10;56.58;98101.81;1221201;75;2923758;-70
2023/08/10 11:14:15;;;;;;;1.25;0.90;;;;;;;23.52;56.61;98104.09;1222478;75;2923566;-71
2023/08/10 11:16:50;;;;;;;3.40;1.30;;;;;;;23.26;57.62;98099.53;1221582;75;2923481;-68
2023/08/10 11:19:22;;;;;;;1.80;0.95;;;;;;;23.96;56.82;98109.63;1222453;75;2916986;-69
2023/08/10 11:21:56;;;;;;;2.00;1.05;;;;;;;23.72;56.37;98097.63;1221862;75;2920473;-68
2023/08/10 11:24:33;;;;;;;1.40;1.00;;;;;;;24.40;55.41;98090.63;1222974;75;2925162;-71
2023/08/10 11:27:09;;;;;;;1.40;1.00;;;;;;;25.85;53.13;98088.63;1222314;75;2928635;-69
2023/08/10 11:29:41;;;;;;;1.20;0.90;;;;;;;25.17;53.62;98100.94;1222219;75;2925319;-68
2023/08/10 11:32:15;;;;;;;0.80;0.80;;;;;;;25.24;53.20;98084.13;1222785;75;2926147;-71
2023/08/10 11:34:47;;;;;;;1.35;1.00;;;;;;;24.87;53.59;98085.72;1218950;75;3119379;-69
2023/08/10 11:37:21;;;;;;;1.15;0.85;;;;;;;24.90;53.09;98086.66;1222660;75;2923054;-65
2023/08/10 11:39:53;;;;;;;1.30;0.90;;;;;;;25.80;52.44;98077.66;1224274;75;2847996;-69
2023/08/10 11:42:29;;;;;;;1.20;0.90;;;;;;;26.53;52.82;98067.00;1221338;75;2921716;-69